Time;durP1;ratioP1;P1;durP2;ratioP2;P2;SDS_P1;SDS_P2;PMS_P1;PMS_P2;Temp;Humidity;BMP_temperature;BMP_pressure;BME280_temperature;BME280_humidity;BME280_pressure;Samples;Min_cycle;Max_cycle;Signal;HPM_P1;HPM_P2
2023/06/30 00:02:19;;;;;;;9.00;2.40;;;;;;;;;;5031657;28;20063;-74
2023/06/30 00:04:47;;;;;;;9.18;1.80;;;;;;;;;;5030687;28;20060;-75
2023/06/30 00:07:13;;;;;;;9.23;2.40;;;;;;;;;;5030908;28;20025;-75
2023/06/30 00:09:39;;;;;;;6.18;1.75;;;;;;;;;;5030849;28;20472;-75
2023/06/30 00:12:06;;;;;;;5.63;2.50;;;;;;;;;;5030332;28;20036;-75
2023/06/30 00:14:31;;;;;;;9.23;2.60;;;;;;;;;;5031888;28;20033;-73
2023/06/30 00:16:57;;;;;;;6.80;1.77;;;;;;;;;;5031721;28;20152;-74
2023/06/30 00:19:25;;;;;;;6.38;1.80;;;;;;;;;;5031735;28;20498;-75
2023/06/30 00:21:52;;;;;;;7.45;1.85;;;;;;;;;;5031617;28;20415;-76
2023/06/30 00:24:19;;;;;;;9.80;2.00;;;;;;;;;;5031785;28;20020;-74
2023/06/30 00:26:45;;;;;;;9.52;1.70;;;;;;;;;;5031801;28;20053;-75
2023/06/30 00:29:11;;;;;;;14.35;3.17;;;;;;;;;;5031751;28;20018;-75
2023/06/30 00:31:37;;;;;;;4.93;1.63;;;;;;;;;;5030340;28;20436;-74
2023/06/30 00:34:03;;;;;;;11.13;1.65;;;;;;;;;;5031171;28;20025;-74
2023/06/30 00:36:29;;;;;;;7.38;1.67;;;;;;;;;;5031549;28;20033;-73
2023/06/30 00:38:55;;;;;;;9.18;1.55;;;;;;;;;;5031493;28;20403;-74
2023/06/30 00:41:22;;;;;;;9.52;1.67;;;;;;;;;;5031759;28;20025;-75
2023/06/30 00:43:48;;;;;;;8.55;1.77;;;;;;;;;;5031315;28;20056;-73
2023/06/30 00:46:16;;;;;;;10.90;1.95;;;;;;;;;;5031554;28;20033;-73
2023/06/30 00:48:42;;;;;;;4.57;1.60;;;;;;;;;;5031586;28;20032;-73
2023/06/30 00:51:09;;;;;;;5.72;1.90;;;;;;;;;;5031441;28;20479;-72
2023/06/30 00:53:35;;;;;;;5.45;1.52;;;;;;;;;;5031106;28;20087;-73
2023/06/30 00:56:01;;;;;;;10.70;2.25;;;;;;;;;;5031366;28;20296;-74
2023/06/30 00:58:27;;;;;;;9.35;2.00;;;;;;;;;;5031599;28;20021;-74
2023/06/30 01:00:55;;;;;;;8.32;1.88;;;;;;;;;;5031323;28;20541;-72
2023/06/30 01:03:28;;;;;;;7.32;1.85;;;;;;;;;;5031055;28;20028;-74
2023/06/30 01:05:56;;;;;;;10.48;2.33;;;;;;;;;;5031211;28;20024;-74
2023/06/30 01:08:25;;;;;;;15.25;2.25;;;;;;;;;;5031231;28;20026;-74
2023/06/30 01:10:53;;;;;;;6.03;1.92;;;;;;;;;;5030138;28;20383;-73
2023/06/30 01:13:19;;;;;;;7.40;2.00;;;;;;;;;;5031423;28;20072;-75
2023/06/30 01:15:45;;;;;;;6.28;1.80;;;;;;;;;;5034549;28;20112;-75
2023/06/30 01:18:11;;;;;;;9.48;2.53;;;;;;;;;;5035128;28;20076;-74
2023/06/30 01:20:40;;;;;;;16.23;2.35;;;;;;;;;;5034954;28;20117;-75
2023/06/30 01:23:17;;;;;;;10.50;2.55;;;;;;;;;;5034744;28;20022;-73
2023/06/30 01:25:43;;;;;;;9.63;2.17;;;;;;;;;;5035006;28;20025;-73
2023/06/30 01:28:10;;;;;;;13.70;2.33;;;;;;;;;;5034866;28;20025;-73
2023/06/30 01:30:36;;;;;;;8.88;2.80;;;;;;;;;;5034751;28;20041;-74
2023/06/30 01:33:02;;;;;;;12.00;3.25;;;;;;;;;;5034611;28;20033;-74
2023/06/30 01:35:28;;;;;;;10.30;2.67;;;;;;;;;;5033838;28;20369;-72
2023/06/30 01:37:55;;;;;;;7.57;2.92;;;;;;;;;;5034666;28;20430;-74
2023/06/30 01:40:21;;;;;;;12.13;2.97;;;;;;;;;;5034519;28;20383;-73
2023/06/30 01:42:48;;;;;;;15.48;3.03;;;;;;;;;;5034220;28;20036;-73
2023/06/30 01:45:16;;;;;;;11.45;3.22;;;;;;;;;;5034772;28;20483;-72
2023/06/30 01:47:43;;;;;;;12.48;3.08;;;;;;;;;;5034449;28;20040;-74
2023/06/30 01:50:09;;;;;;;9.25;2.83;;;;;;;;;;5034406;28;20029;-74
2023/06/30 01:52:36;;;;;;;15.00;4.10;;;;;;;;;;5033938;28;20029;-73
2023/06/30 01:55:03;;;;;;;14.48;3.85;;;;;;;;;;5034306;28;20025;-74
2023/06/30 01:57:29;;;;;;;16.40;3.92;;;;;;;;;;5034354;28;20029;-73
2023/06/30 01:59:54;;;;;;;13.50;3.70;;;;;;;;;;5034454;28;20565;-73
2023/06/30 02:02:21;;;;;;;15.35;3.70;;;;;;;;;;5034121;28;20067;-73
2023/06/30 02:04:47;;;;;;;15.30;4.22;;;;;;;;;;5034243;28;20056;-74
2023/06/30 02:07:13;;;;;;;13.25;3.38;;;;;;;;;;5034303;28;20057;-74
2023/06/30 02:09:39;;;;;;;21.10;4.15;;;;;;;;;;5031548;28;20033;-73
2023/06/30 02:12:05;;;;;;;13.88;3.30;;;;;;;;;;5033411;28;20037;-74
2023/06/30 02:14:31;;;;;;;19.38;3.28;;;;;;;;;;5034333;28;20029;-73
2023/06/30 02:16:57;;;;;;;15.13;3.35;;;;;;;;;;5033882;28;20367;-74
2023/06/30 02:19:24;;;;;;;11.95;3.40;;;;;;;;;;5033635;28;20038;-72
2023/06/30 02:21:50;;;;;;;16.27;3.63;;;;;;;;;;5033362;28;20075;-73
2023/06/30 02:24:16;;;;;;;17.90;3.17;;;;;;;;;;5034655;28;20025;-72
2023/06/30 02:26:42;;;;;;;11.50;3.63;;;;;;;;;;5033128;28;20033;-73
2023/06/30 02:29:08;;;;;;;15.80;3.35;;;;;;;;;;5033710;28;20380;-73
2023/06/30 02:31:34;;;;;;;9.43;3.78;;;;;;;;;;5034264;28;20029;-74
2023/06/30 02:34:00;;;;;;;16.40;3.88;;;;;;;;;;5033171;28;20499;-73
2023/06/30 02:36:26;;;;;;;17.40;4.03;;;;;;;;;;5033354;28;20033;-73
2023/06/30 02:38:52;;;;;;;9.68;3.40;;;;;;;;;;5035383;28;20174;-73
2023/06/30 02:41:18;;;;;;;12.82;3.50;;;;;;;;;;5033428;28;20506;-73
2023/06/30 02:43:45;;;;;;;16.85;3.05;;;;;;;;;;5032459;28;20029;-72
2023/06/30 02:46:11;;;;;;;15.23;3.40;;;;;;;;;;5033197;28;20057;-72
2023/06/30 02:48:37;;;;;;;12.88;3.97;;;;;;;;;;5033025;28;20028;-73
2023/06/30 02:51:03;;;;;;;15.00;3.67;;;;;;;;;;5032968;28;20025;-73
2023/06/30 02:53:29;;;;;;;12.68;3.38;;;;;;;;;;5032218;28;20555;-72
2023/06/30 02:55:54;;;;;;;9.90;3.42;;;;;;;;;;5033170;28;20057;-73
2023/06/30 02:58:22;;;;;;;10.52;2.65;;;;;;;;;;5033085;28;20360;-73
2023/06/30 03:00:49;;;;;;;15.13;3.22;;;;;;;;;;5033118;28;20554;-72
2023/06/30 03:03:15;;;;;;;12.32;2.85;;;;;;;;;;5032318;28;20372;-74
2023/06/30 03:05:41;;;;;;;9.45;2.53;;;;;;;;;;5033106;28;20021;-73
2023/06/30 03:08:07;;;;;;;10.90;2.85;;;;;;;;;;5032758;28;20037;-72
2023/06/30 03:10:33;;;;;;;14.18;2.90;;;;;;;;;;5032841;28;20108;-72
2023/06/30 03:12:59;;;;;;;11.57;2.40;;;;;;;;;;5032189;28;20091;-75
2023/06/30 03:15:25;;;;;;;14.77;3.55;;;;;;;;;;5032335;28;20037;-73
2023/06/30 03:17:51;;;;;;;10.20;2.55;;;;;;;;;;5032857;28;20109;-72
2023/06/30 03:20:17;;;;;;;12.85;3.08;;;;;;;;;;5032652;28;20027;-73
2023/06/30 03:22:43;;;;;;;7.70;2.20;;;;;;;;;;5032542;28;20365;-74
2023/06/30 03:25:10;;;;;;;10.57;2.40;;;;;;;;;;5032673;28;20045;-73
2023/06/30 03:27:36;;;;;;;9.68;1.98;;;;;;;;;;5032641;28;20095;-73
2023/06/30 03:30:03;;;;;;;9.38;2.40;;;;;;;;;;5032522;28;20022;-73
2023/06/30 03:32:29;;;;;;;17.90;3.47;;;;;;;;;;5031977;28;20033;-73
2023/06/30 03:34:55;;;;;;;10.35;2.25;;;;;;;;;;5032495;28;20038;-74
2023/06/30 03:37:21;;;;;;;9.23;2.03;;;;;;;;;;5032270;28;20098;-74
2023/06/30 03:39:47;;;;;;;5.53;1.95;;;;;;;;;;5032635;28;20479;-73
2023/06/30 03:42:13;;;;;;;11.35;1.90;;;;;;;;;;5032081;28;20018;-74
2023/06/30 03:44:39;;;;;;;12.40;2.67;;;;;;;;;;5032514;28;20025;-74
2023/06/30 03:47:05;;;;;;;14.00;2.97;;;;;;;;;;5032304;28;20104;-73
2023/06/30 03:49:31;;;;;;;10.65;2.53;;;;;;;;;;5032561;28;20372;-73
2023/06/30 03:51:57;;;;;;;6.63;2.45;;;;;;;;;;5033394;28;20079;-73
2023/06/30 03:54:23;;;;;;;13.20;2.65;;;;;;;;;;5032502;28;20052;-73
2023/06/30 03:56:49;;;;;;;10.98;2.33;;;;;;;;;;5031984;28;20479;-73
2023/06/30 03:59:16;;;;;;;9.50;2.72;;;;;;;;;;5032458;28;20030;-73
2023/06/30 04:01:42;;;;;;;11.05;2.22;;;;;;;;;;5032224;28;20022;-74
2023/06/30 04:04:08;;;;;;;9.55;2.10;;;;;;;;;;5031932;28;20391;-73
2023/06/30 04:06:36;;;;;;;13.23;3.38;;;;;;;;;;5032279;28;20053;-74
2023/06/30 04:09:02;;;;;;;15.27;3.20;;;;;;;;;;5031868;28;20395;-73
2023/06/30 04:11:28;;;;;;;14.05;3.35;;;;;;;;;;5032032;28;20025;-73
2023/06/30 04:13:54;;;;;;;8.15;1.98;;;;;;;;;;5031541;28;20021;-72
2023/06/30 04:16:20;;;;;;;14.27;3.33;;;;;;;;;;5031815;28;20078;-73
2023/06/30 04:18:46;;;;;;;8.15;2.53;;;;;;;;;;5031782;28;20101;-73
2023/06/30 04:21:12;;;;;;;17.92;3.15;;;;;;;;;;5031760;28;20118;-72
2023/06/30 04:23:38;;;;;;;10.15;2.38;;;;;;;;;;5031236;28;20026;-73
2023/06/30 04:26:04;;;;;;;13.98;2.80;;;;;;;;;;5031918;28;20025;-74
2023/06/30 04:28:31;;;;;;;9.50;2.42;;;;;;;;;;5031474;28;20361;-74
2023/06/30 04:30:58;;;;;;;10.75;2.85;;;;;;;;;;5031230;28;20037;-73
2023/06/30 04:33:24;;;;;;;9.00;2.80;;;;;;;;;;5031146;28;20037;-76
2023/06/30 04:35:50;;;;;;;10.20;2.25;;;;;;;;;;5036572;28;20076;-74
2023/06/30 04:38:19;;;;;;;12.05;2.72;;;;;;;;;;5031686;28;20022;-74
2023/06/30 04:40:45;;;;;;;15.43;2.63;;;;;;;;;;5034319;28;20045;-74
2023/06/30 04:43:12;;;;;;;10.25;2.60;;;;;;;;;;5031228;28;20108;-75
2023/06/30 04:45:39;;;;;;;9.02;3.00;;;;;;;;;;5043279;28;20021;-73
2023/06/30 04:48:07;;;;;;;10.57;2.22;;;;;;;;;;5031617;28;20095;-77
2023/06/30 04:50:33;;;;;;;7.40;2.45;;;;;;;;;;5037647;28;20387;-73
2023/06/30 04:52:59;;;;;;;8.38;2.50;;;;;;;;;;5037108;28;20032;-74
2023/06/30 04:55:25;;;;;;;5.00;1.50;;;;;;;;;;5037478;28;20120;-74
2023/06/30 04:57:53;;;;;;;7.85;1.58;;;;;;;;;;5035260;28;20048;-75
2023/06/30 05:00:19;;;;;;;7.18;1.60;;;;;;;;;;5035718;28;20175;-73
2023/06/30 05:02:45;;;;;;;6.78;1.42;;;;;;;;;;5041595;28;20498;-73
2023/06/30 05:05:12;;;;;;;14.00;4.80;;;;;;;;;;5035498;28;20115;-74
2023/06/30 05:07:38;;;;;;;7.97;1.98;;;;;;;;;;5035118;28;20018;-75
2023/06/30 05:10:04;;;;;;;9.38;3.70;;;;;;;;;;5039389;28;20029;-73
2023/06/30 05:12:30;;;;;;;10.57;2.50;;;;;;;;;;5037429;28;20379;-73
2023/06/30 05:14:56;;;;;;;7.35;1.73;;;;;;;;;;5034541;28;20029;-74
2023/06/30 05:17:22;;;;;;;7.65;1.50;;;;;;;;;;5038070;28;20088;-74
2023/06/30 05:19:48;;;;;;;9.85;1.65;;;;;;;;;;5039657;28;20487;-75
2023/06/30 05:22:15;;;;;;;4.60;1.65;;;;;;;;;;5034662;28;20557;-76
2023/06/30 05:24:41;;;;;;;8.45;2.25;;;;;;;;;;5037043;28;20013;-77
2023/06/30 05:27:07;;;;;;;6.70;1.65;;;;;;;;;;5035075;28;20091;-76
2023/06/30 05:29:33;;;;;;;4.65;2.17;;;;;;;;;;5035895;28;20399;-76
2023/06/30 05:31:59;;;;;;;7.22;1.67;;;;;;;;;;5040398;28;20032;-75
2023/06/30 05:34:25;;;;;;;6.82;1.60;;;;;;;;;;5034789;28;20056;-73
2023/06/30 05:36:52;;;;;;;6.25;1.50;;;;;;;;;;5035324;28;20030;-74
2023/06/30 05:39:18;;;;;;;5.47;1.20;;;;;;;;;;5034764;28;20056;-74
2023/06/30 05:41:44;;;;;;;7.93;1.73;;;;;;;;;;5035527;28;20364;-77
2023/06/30 05:44:10;;;;;;;8.50;2.58;;;;;;;;;;5033414;28;20036;-73
2023/06/30 05:46:39;;;;;;;6.47;1.67;;;;;;;;;;5044006;28;20097;-76
2023/06/30 05:49:05;;;;;;;3.58;1.20;;;;;;;;;;5034832;28;20040;-78
2023/06/30 05:51:35;;;;;;;7.10;1.90;;;;;;;;;;5038550;28;20203;-76
2023/06/30 05:54:01;;;;;;;10.32;2.15;;;;;;;;;;5034483;28;20577;-77
2023/06/30 05:56:28;;;;;;;5.95;1.27;;;;;;;;;;5046296;28;20035;-76
2023/06/30 05:58:54;;;;;;;8.00;1.90;;;;;;;;;;5036221;28;20061;-77
2023/06/30 06:01:20;;;;;;;10.82;1.70;;;;;;;;;;5040502;28;20462;-75
2023/06/30 06:03:46;;;;;;;7.00;1.42;;;;;;;;;;5037027;28;20033;-77
2023/06/30 06:06:12;;;;;;;8.95;1.40;;;;;;;;;;5034360;28;20021;-76
2023/06/30 06:08:43;;;;;;;6.03;1.25;;;;;;;;;;5034610;28;20069;-72
2023/06/30 06:11:09;;;;;;;10.93;2.00;;;;;;;;;;5034059;28;20125;-75
2023/06/30 06:13:36;;;;;;;8.68;1.65;;;;;;;;;;5033969;28;20065;-70
2023/06/30 06:16:02;;;;;;;7.00;1.70;;;;;;;;;;5051176;28;20128;-72
2023/06/30 06:18:28;;;;;;;7.45;1.88;;;;;;;;;;5053780;28;20033;-72
2023/06/30 06:20:55;;;;;;;10.55;2.22;;;;;;;;;;5053934;28;20025;-73
2023/06/30 06:23:21;;;;;;;11.13;1.80;;;;;;;;;;5053330;28;20104;-73
2023/06/30 06:25:48;;;;;;;8.55;1.70;;;;;;;;;;5053732;28;20036;-73
2023/06/30 06:28:14;;;;;;;7.53;1.55;;;;;;;;;;5053573;28;20035;-72
2023/06/30 06:30:40;;;;;;;9.65;1.83;;;;;;;;;;5053650;28;20029;-72
2023/06/30 06:33:06;;;;;;;11.70;2.20;;;;;;;;;;5053163;28;20497;-73
2023/06/30 06:35:33;;;;;;;4.80;2.00;;;;;;;;;;5053277;28;20033;-72
2023/06/30 06:37:59;;;;;;;11.52;1.92;;;;;;;;;;5053597;28;20043;-73
2023/06/30 06:40:25;;;;;;;8.95;2.25;;;;;;;;;;5053657;28;20021;-73
2023/06/30 06:42:51;;;;;;;9.55;1.75;;;;;;;;;;5053158;28;20057;-71
2023/06/30 06:45:17;;;;;;;12.73;3.60;;;;;;;;;;5053166;28;20479;-72
2023/06/30 06:48:02;;;;;;;6.60;2.90;;;;;;;;;;5053388;28;20123;-72
2023/06/30 06:50:28;;;;;;;;;;;;;;;;;;5053423;28;20548;-72
2023/06/30 06:52:54;;;;;;;7.45;2.83;;;;;;;;;;5051820;28;19908;-72
2023/06/30 06:55:20;;;;;;;11.80;2.42;;;;;;;;;;5051927;28;20033;-74
2023/06/30 06:57:48;;;;;;;7.75;2.83;;;;;;;;;;5052381;28;20032;-73
2023/06/30 07:00:15;;;;;;;8.35;2.75;;;;;;;;;;5052440;28;20029;-73
2023/06/30 07:02:41;;;;;;;9.75;2.03;;;;;;;;;;5051604;28;20021;-73
2023/06/30 07:05:07;;;;;;;11.60;2.28;;;;;;;;;;5052104;28;20536;-73
2023/06/30 07:07:33;;;;;;;8.52;4.35;;;;;;;;;;5051574;28;20541;-74
2023/06/30 07:09:59;;;;;;;10.60;3.53;;;;;;;;;;5052111;28;20406;-72
2023/06/30 07:12:25;;;;;;;50.58;13.65;;;;;;;;;;5050805;28;20495;-73
2023/06/30 07:14:51;;;;;;;8.82;2.38;;;;;;;;;;5051781;28;20028;-73
2023/06/30 07:17:17;;;;;;;11.00;2.75;;;;;;;;;;5052016;28;20422;-71
2023/06/30 07:19:43;;;;;;;10.93;2.00;;;;;;;;;;5051175;28;20031;-71
2023/06/30 07:22:08;;;;;;;15.18;1.88;;;;;;;;;;5051366;28;20029;-71
2023/06/30 07:24:34;;;;;;;10.98;2.55;;;;;;;;;;5051732;28;20021;-72
2023/06/30 07:27:00;;;;;;;7.60;2.40;;;;;;;;;;5051609;28;20044;-71
2023/06/30 07:29:26;;;;;;;13.48;3.05;;;;;;;;;;5051541;28;20032;-74
2023/06/30 07:31:52;;;;;;;10.75;2.65;;;;;;;;;;5051191;28;20419;-72
2023/06/30 07:34:19;;;;;;;7.68;1.73;;;;;;;;;;5051049;28;20036;-71
2023/06/30 07:36:46;;;;;;;10.88;2.13;;;;;;;;;;5048186;28;20116;-71
2023/06/30 07:39:12;;;;;;;9.77;2.70;;;;;;;;;;5051625;28;20434;-72
2023/06/30 07:41:38;;;;;;;14.45;3.58;;;;;;;;;;5043916;28;20075;-72
2023/06/30 07:44:04;;;;;;;8.77;2.20;;;;;;;;;;5030948;28;20021;-71
2023/06/30 07:46:31;;;;;;;12.60;2.85;;;;;;;;;;5030731;28;20032;-71
2023/06/30 07:48:57;;;;;;;14.48;3.22;;;;;;;;;;5031341;28;20037;-73
2023/06/30 07:51:23;;;;;;;8.35;1.80;;;;;;;;;;5030921;28;20029;-70
2023/06/30 07:53:49;;;;;;;10.73;2.10;;;;;;;;;;5030712;28;20034;-73
2023/06/30 07:56:15;;;;;;;10.43;1.90;;;;;;;;;;5030953;28;20032;-71
2023/06/30 07:58:41;;;;;;;5.05;1.52;;;;;;;;;;5032569;28;20041;-71
2023/06/30 08:01:07;;;;;;;3.88;1.40;;;;;;;;;;5031539;28;20060;-71
2023/06/30 08:03:33;;;;;;;8.40;1.98;;;;;;;;;;5030759;28;20034;-71
2023/06/30 08:06:00;;;;;;;7.35;1.90;;;;;;;;;;5032217;28;20029;-70
2023/06/30 08:08:26;;;;;;;7.65;1.67;;;;;;;;;;5031723;28;20440;-71
2023/06/30 08:10:52;;;;;;;5.38;1.50;;;;;;;;;;5033426;28;20065;-73
2023/06/30 08:13:17;;;;;;;12.65;1.67;;;;;;;;;;5033437;28;20060;-72
2023/06/30 08:15:43;;;;;;;8.27;1.92;;;;;;;;;;5033842;28;20029;-72
2023/06/30 08:18:11;;;;;;;12.02;1.73;;;;;;;;;;5034362;28;20026;-72
2023/06/30 08:20:37;;;;;;;9.20;1.40;;;;;;;;;;5034948;28;20052;-73
2023/06/30 08:23:03;;;;;;;4.00;1.30;;;;;;;;;;5034479;28;20288;-77
2023/06/30 08:25:29;;;;;;;5.38;1.38;;;;;;;;;;5032822;28;20029;-77
2023/06/30 08:27:55;;;;;;;6.50;1.13;;;;;;;;;;5033096;28;20348;-75
2023/06/30 08:30:22;;;;;;;5.43;1.42;;;;;;;;;;5033614;28;20078;-76
2023/06/30 08:32:48;;;;;;;8.73;3.05;;;;;;;;;;5033344;28;20418;-77
2023/06/30 08:35:14;;;;;;;7.40;1.27;;;;;;;;;;5033122;28;20029;-74
2023/06/30 08:37:40;;;;;;;4.93;1.27;;;;;;;;;;5032071;28;20495;-76
2023/06/30 08:40:06;;;;;;;7.40;1.65;;;;;;;;;;5032455;28;20028;-75
2023/06/30 08:42:35;;;;;;;7.75;1.40;;;;;;;;;;5032120;28;20064;-74
2023/06/30 08:45:02;;;;;;;7.32;1.48;;;;;;;;;;5032044;28;20018;-74
2023/06/30 08:47:31;;;;;;;6.97;1.50;;;;;;;;;;5032062;28;20036;-75
2023/06/30 08:49:57;;;;;;;6.75;1.75;;;;;;;;;;5032011;28;20076;-76
2023/06/30 08:52:23;;;;;;;5.50;1.70;;;;;;;;;;5031199;28;20021;-75
2023/06/30 08:54:49;;;;;;;10.00;1.60;;;;;;;;;;5031965;28;20434;-77
2023/06/30 08:57:16;;;;;;;3.78;1.35;;;;;;;;;;5031567;28;20549;-74
2023/06/30 08:59:43;;;;;;;4.15;1.25;;;;;;;;;;5032158;28;20071;-76
2023/06/30 09:02:09;;;;;;;8.38;1.75;;;;;;;;;;5031405;28;20025;-77
2023/06/30 09:04:36;;;;;;;5.95;1.15;;;;;;;;;;5031684;28;20029;-73
2023/06/30 09:07:05;;;;;;;9.43;1.73;;;;;;;;;;5031141;28;20495;-72
2023/06/30 09:09:41;;;;;;;18.75;3.65;;;;;;;;;;5031319;28;20498;-73
2023/06/30 09:12:07;;;;;;;7.00;2.20;;;;;;;;;;5031257;28;20299;-74
2023/06/30 09:14:34;;;;;;;15.82;2.78;;;;;;;;;;5031407;28;20029;-74
2023/06/30 09:17:03;;;;;;;8.23;2.00;;;;;;;;;;5032252;28;20030;-72
2023/06/30 09:19:30;;;;;;;6.47;1.50;;;;;;;;;;5031363;28;20049;-74
2023/06/30 09:21:57;;;;;;;13.75;2.88;;;;;;;;;;5030917;28;20528;-73
2023/06/30 09:24:23;;;;;;;8.93;2.45;;;;;;;;;;5031247;28;20101;-74
2023/06/30 09:26:52;;;;;;;14.68;2.83;;;;;;;;;;5031443;28;20026;-73
2023/06/30 09:29:21;;;;;;;16.90;3.42;;;;;;;;;;5031406;28;20374;-73
2023/06/30 09:31:51;;;;;;;10.20;1.75;;;;;;;;;;5030878;28;20501;-73
2023/06/30 09:34:19;;;;;;;16.15;6.15;;;;;;;;;;5031127;28;20413;-72
2023/06/30 09:36:49;;;;;;;6.93;2.97;;;;;;;;;;5034372;28;20030;-73
2023/06/30 09:39:15;;;;;;;12.27;2.83;;;;;;;;;;5034756;28;20071;-72
2023/06/30 09:41:45;;;;;;;6.85;2.70;;;;;;;;;;5034722;28;20057;-72
2023/06/30 09:44:11;;;;;;;6.75;1.42;;;;;;;;;;5035200;28;20037;-72
2023/06/30 09:46:53;;;;;;;12.18;1.70;;;;;;;;;;5035313;28;20033;-73
2023/06/30 09:49:32;;;;;;;8.63;2.28;;;;;;;;;;5035481;28;20040;-72
2023/06/30 09:51:59;;;;;;;8.63;3.67;;;;;;;;;;5037708;28;20030;-73
2023/06/30 09:54:26;;;;;;;9.02;3.08;;;;;;;;;;5038404;28;20078;-73
2023/06/30 09:56:58;;;;;;;5.70;1.77;;;;;;;;;;5028099;28;20032;-73
2023/06/30 09:59:25;;;;;;;11.98;7.93;;;;;;;;;;5032198;28;20029;-73
2023/06/30 10:01:55;;;;;;;7.82;3.53;;;;;;;;;;5037142;28;20017;-73
2023/06/30 10:04:21;;;;;;;6.90;1.92;;;;;;;;;;5034017;28;20395;-73
2023/06/30 10:06:51;;;;;;;9.43;2.58;;;;;;;;;;5033953;28;20485;-75
2023/06/30 10:09:19;;;;;;;6.20;2.13;;;;;;;;;;5034081;28;20521;-76
2023/06/30 10:11:49;;;;;;;8.93;2.50;;;;;;;;;;5033784;28;20119;-77
2023/06/30 10:14:17;;;;;;;10.63;3.80;;;;;;;;;;5039031;28;20034;-77
2023/06/30 10:16:43;;;;;;;6.82;2.13;;;;;;;;;;5033532;28;20431;-72
2023/06/30 10:19:09;;;;;;;9.23;3.90;;;;;;;;;;5033946;28;20025;-71
2023/06/30 10:21:35;;;;;;;10.88;2.88;;;;;;;;;;5033869;28;20032;-73
2023/06/30 10:24:02;;;;;;;8.70;2.75;;;;;;;;;;5033763;28;20029;-72
2023/06/30 10:26:29;;;;;;;5.35;2.00;;;;;;;;;;5034004;28;20029;-71
2023/06/30 10:28:55;;;;;;;6.28;1.50;;;;;;;;;;5034484;28;20022;-72
2023/06/30 10:31:21;;;;;;;6.68;1.90;;;;;;;;;;5033872;28;20029;-74
2023/06/30 10:33:48;;;;;;;8.60;2.63;;;;;;;;;;5033731;28;20029;-74
2023/06/30 10:36:14;;;;;;;6.15;2.33;;;;;;;;;;5033618;28;20029;-72
2023/06/30 10:38:42;;;;;;;5.18;1.50;;;;;;;;;;5033779;28;20454;-73
2023/06/30 10:41:17;;;;;;;6.43;1.50;;;;;;;;;;5033948;28;20018;-73
2023/06/30 10:44:01;;;;;;;7.03;2.55;;;;;;;;;;5033692;28;20057;-72
2023/06/30 10:46:40;;;;;;;10.48;3.35;;;;;;;;;;5034029;28;20376;-74
2023/06/30 10:49:06;;;;;;;6.50;1.70;;;;;;;;;;5033636;28;20033;-74
2023/06/30 10:51:36;;;;;;;8.45;3.45;;;;;;;;;;5033085;28;20475;-74
2023/06/30 10:54:02;;;;;;;3.60;1.30;;;;;;;;;;5033745;28;20032;-73
2023/06/30 10:56:30;;;;;;;5.15;2.13;;;;;;;;;;5033455;28;20033;-73
2023/06/30 10:58:58;;;;;;;10.40;2.50;;;;;;;;;;5033631;28;20048;-72
2023/06/30 11:01:27;;;;;;;10.45;3.10;;;;;;;;;;5033742;28;20017;-74
2023/06/30 11:03:58;;;;;;;8.23;3.17;;;;;;;;;;5033346;28;20075;-73
2023/06/30 11:06:25;;;;;;;22.95;10.93;;;;;;;;;;5033736;28;20052;-72
2023/06/30 11:09:01;;;;;;;6.78;1.77;;;;;;;;;;5032837;28;20541;-73
2023/06/30 11:11:27;;;;;;;4.35;1.73;;;;;;;;;;5032414;28;20195;-74
2023/06/30 11:14:05;;;;;;;6.95;2.28;;;;;;;;;;5032305;28;20371;-73
2023/06/30 11:16:51;;;;;;;5.97;1.92;;;;;;;;;;5033167;28;20026;-73
2023/06/30 11:19:24;;;;;;;4.65;1.40;;;;;;;;;;5032830;28;20028;-72
2023/06/30 11:22:10;;;;;;;4.25;1.40;;;;;;;;;;5032687;28;20482;-78
2023/06/30 11:24:36;;;;;;;9.27;1.67;;;;;;;;;;5025564;28;20034;-74
2023/06/30 11:27:04;;;;;;;6.75;1.40;;;;;;;;;;5032610;28;20367;-73
2023/06/30 11:29:30;;;;;;;6.45;1.45;;;;;;;;;;5032465;28;20083;-72
2023/06/30 11:31:56;;;;;;;5.50;1.70;;;;;;;;;;5031953;28;20104;-74
2023/06/30 11:34:22;;;;;;;2.08;1.40;;;;;;;;;;5032674;28;20061;-73
2023/06/30 11:36:48;;;;;;;8.15;1.27;;;;;;;;;;5032520;28;20114;-75
2023/06/30 11:39:14;;;;;;;8.77;1.80;;;;;;;;;;5032947;28;20058;-73
2023/06/30 11:41:40;;;;;;;5.70;1.90;;;;;;;;;;5032582;28;20483;-73
2023/06/30 11:44:06;;;;;;;4.68;1.42;;;;;;;;;;5033174;28;20025;-78
2023/06/30 11:46:36;;;;;;;4.18;1.45;;;;;;;;;;5033907;28;20083;-77
2023/06/30 11:49:02;;;;;;;5.00;1.58;;;;;;;;;;5033168;28;20109;-75
2023/06/30 11:51:29;;;;;;;9.05;1.63;;;;;;;;;;5032651;28;20036;-75
2023/06/30 11:53:55;;;;;;;4.47;1.40;;;;;;;;;;5032454;28;20530;-76
2023/06/30 11:56:22;;;;;;;6.50;2.20;;;;;;;;;;5032480;28;20029;-76
2023/06/30 11:58:48;;;;;;;13.27;2.13;;;;;;;;;;5032637;28;20033;-76
2023/06/30 12:01:14;;;;;;;9.55;2.00;;;;;;;;;;5032745;28;20026;-74
2023/06/30 12:03:40;;;;;;;5.10;1.40;;;;;;;;;;5032193;28;20022;-76
2023/06/30 12:06:07;;;;;;;6.35;1.50;;;;;;;;;;5032169;28;20032;-77
2023/06/30 12:08:37;;;;;;;5.65;1.80;;;;;;;;;;5033519;28;20502;-79
2023/06/30 12:11:06;;;;;;;6.38;2.22;;;;;;;;;;5035147;28;20099;-74
2023/06/30 12:13:33;;;;;;;15.52;9.05;;;;;;;;;;5032146;28;20018;-74
2023/06/30 12:15:59;;;;;;;11.57;6.00;;;;;;;;;;5032177;28;20456;-75
2023/06/30 12:18:31;;;;;;;5.28;1.90;;;;;;;;;;5032058;28;20321;-74
2023/06/30 12:20:58;;;;;;;3.72;1.20;;;;;;;;;;5032234;28;20087;-72
2023/06/30 12:23:28;;;;;;;8.73;1.20;;;;;;;;;;5031620;28;20036;-73
2023/06/30 12:25:56;;;;;;;5.45;1.90;;;;;;;;;;5032080;28;20483;-76
2023/06/30 12:28:22;;;;;;;4.07;1.65;;;;;;;;;;5032202;28;20044;-76
2023/06/30 12:30:48;;;;;;;4.20;1.42;;;;;;;;;;5031631;28;20021;-76
2023/06/30 12:33:19;;;;;;;6.47;1.48;;;;;;;;;;5031556;28;20523;-77
2023/06/30 12:35:46;;;;;;;8.38;1.20;;;;;;;;;;5031706;28;20056;-76
2023/06/30 12:38:13;;;;;;;6.78;1.40;;;;;;;;;;5031676;28;20029;-73
2023/06/30 12:40:39;;;;;;;5.80;1.30;;;;;;;;;;5031436;28;20025;-75
2023/06/30 12:43:05;;;;;;;6.25;1.00;;;;;;;;;;5031463;28;20432;-74
2023/06/30 12:45:31;;;;;;;4.15;1.40;;;;;;;;;;5031373;28;20025;-73
2023/06/30 12:47:57;;;;;;;5.88;1.50;;;;;;;;;;5031374;28;20399;-72
2023/06/30 12:50:23;;;;;;;11.07;3.33;;;;;;;;;;5031342;28;20033;-72
2023/06/30 12:52:49;;;;;;;3.03;1.20;;;;;;;;;;5031599;28;20458;-73
2023/06/30 12:55:15;;;;;;;6.15;1.40;;;;;;;;;;5031084;28;20131;-73
2023/06/30 12:57:41;;;;;;;4.70;1.10;;;;;;;;;;5031902;28;20163;-72
2023/06/30 13:00:09;;;;;;;6.53;1.23;;;;;;;;;;5033000;28;20029;-75
2023/06/30 13:02:35;;;;;;;5.68;2.13;;;;;;;;;;5031706;28;20032;-75
2023/06/30 13:05:01;;;;;;;5.47;1.70;;;;;;;;;;5032361;28;20022;-75
2023/06/30 13:07:27;;;;;;;13.63;4.22;;;;;;;;;;5033026;28;20033;-76
2023/06/30 13:09:53;;;;;;;5.05;1.30;;;;;;;;;;5032873;28;20036;-76
2023/06/30 13:12:24;;;;;;;5.78;2.08;;;;;;;;;;5036470;28;20037;-74
2023/06/30 13:14:50;;;;;;;5.95;1.63;;;;;;;;;;5036284;28;20460;-75
2023/06/30 13:17:16;;;;;;;8.23;2.05;;;;;;;;;;5035777;28;20068;-77
2023/06/30 13:19:42;;;;;;;5.13;1.92;;;;;;;;;;5036589;28;20060;-74
2023/06/30 13:22:08;;;;;;;6.40;2.25;;;;;;;;;;5035004;28;20045;-73
2023/06/30 13:24:34;;;;;;;6.03;2.00;;;;;;;;;;5036002;28;20524;-80
2023/06/30 13:27:00;;;;;;;17.05;9.93;;;;;;;;;;5036100;28;20036;-75
2023/06/30 13:29:26;;;;;;;7.93;2.30;;;;;;;;;;5035510;28;20032;-75
2023/06/30 13:31:53;;;;;;;3.35;1.25;;;;;;;;;;5035044;28;20025;-73
2023/06/30 13:34:20;;;;;;;5.25;1.58;;;;;;;;;;5035179;28;20029;-75
2023/06/30 13:36:46;;;;;;;7.72;1.63;;;;;;;;;;5034826;28;20499;-73
2023/06/30 13:39:12;;;;;;;5.97;1.60;;;;;;;;;;5034760;28;20105;-72
2023/06/30 13:41:38;;;;;;;7.90;1.60;;;;;;;;;;5034905;28;20017;-75
2023/06/30 13:44:04;;;;;;;3.90;1.23;;;;;;;;;;5034903;28;20043;-73
2023/06/30 13:46:30;;;;;;;3.65;1.27;;;;;;;;;;5034612;28;20028;-74
2023/06/30 13:48:56;;;;;;;4.60;1.40;;;;;;;;;;5034697;28;20109;-77
2023/06/30 13:51:22;;;;;;;5.68;1.70;;;;;;;;;;5032724;28;20120;-74
2023/06/30 13:53:48;;;;;;;7.20;1.48;;;;;;;;;;5034665;28;20030;-73
2023/06/30 13:56:14;;;;;;;4.40;1.35;;;;;;;;;;5034711;28;20482;-76
2023/06/30 13:58:40;;;;;;;3.97;1.35;;;;;;;;;;5034694;28;20109;-74
2023/06/30 14:01:06;;;;;;;7.35;3.80;;;;;;;;;;5036913;28;20021;-74
2023/06/30 14:03:33;;;;;;;3.70;1.55;;;;;;;;;;5036531;28;20547;-79
2023/06/30 14:05:59;;;;;;;5.43;1.50;;;;;;;;;;5037360;28;20033;-74
2023/06/30 14:08:25;;;;;;;8.07;1.50;;;;;;;;;;5034797;28;20033;-74
2023/06/30 14:10:51;;;;;;;8.73;2.00;;;;;;;;;;5035126;28;20025;-74
2023/06/30 14:13:17;;;;;;;4.15;1.40;;;;;;;;;;5037512;28;20021;-74
2023/06/30 14:15:43;;;;;;;4.88;1.20;;;;;;;;;;5034943;28;20484;-73
2023/06/30 14:18:09;;;;;;;4.93;1.40;;;;;;;;;;5034744;28;20037;-73
2023/06/30 14:20:35;;;;;;;3.28;1.00;;;;;;;;;;5034701;28;20575;-76
2023/06/30 14:23:01;;;;;;;6.05;2.38;;;;;;;;;;5033606;28;20025;-73
2023/06/30 14:25:27;;;;;;;4.78;1.90;;;;;;;;;;5035778;28;20028;-74
2023/06/30 14:27:53;;;;;;;8.93;1.60;;;;;;;;;;5034030;28;20026;-75
2023/06/30 14:30:19;;;;;;;7.68;1.52;;;;;;;;;;5034159;28;20117;-73
2023/06/30 14:32:45;;;;;;;4.65;1.58;;;;;;;;;;5034376;28;20290;-74
2023/06/30 14:35:11;;;;;;;7.10;1.75;;;;;;;;;;5034253;28;20057;-75
2023/06/30 14:37:38;;;;;;;4.38;1.63;;;;;;;;;;5034018;28;20035;-75